createdAt,value
2017-08-29T00:00:45.900Z,14.88
2017-08-29T00:01:47.784Z,14.81
2017-08-29T00:02:49.667Z,14.94
2017-08-29T00:03:51.555Z,14.80
2017-08-29T00:05:05.710Z,14.92
2017-08-29T00:06:07.595Z,14.88
2017-08-29T00:07:09.483Z,14.91
2017-08-29T00:08:11.365Z,14.83
2017-08-29T00:09:13.184Z,14.86
2017-08-29T00:10:15.016Z,14.84
2017-08-29T00:11:16.900Z,14.80
2017-08-29T00:12:18.784Z,14.83
2017-08-29T00:13:20.668Z,14.86
2017-08-29T00:14:34.838Z,14.86
2017-08-29T00:15:36.720Z,14.80
2017-08-29T00:16:38.615Z,14.84
2017-08-29T00:17:40.499Z,14.88
2017-08-29T00:18:42.317Z,14.89
2017-08-29T00:19:44.148Z,14.83
2017-08-29T00:20:46.021Z,14.89
2017-08-29T00:21:47.905Z,14.88
2017-08-29T00:22:49.790Z,14.77
2017-08-29T00:24:03.994Z,14.83
2017-08-29T00:25:05.879Z,14.77
2017-08-29T00:26:07.763Z,14.80
2017-08-29T00:27:09.659Z,14.75
2017-08-29T00:28:11.489Z,14.78
2017-08-29T00:29:13.309Z,14.78
2017-08-29T00:30:15.196Z,14.75
2017-08-29T00:31:17.078Z,14.75
2017-08-29T00:32:18.962Z,14.77
2017-08-29T00:33:33.119Z,14.77
2017-08-29T00:34:35.000Z,14.72
2017-08-29T00:35:36.891Z,14.69
2017-08-29T00:36:38.775Z,14.61
2017-08-29T00:37:40.596Z,14.65
2017-08-29T00:38:42.416Z,14.62
2017-08-29T00:39:44.301Z,14.60
2017-08-29T00:40:46.185Z,14.57
2017-08-29T00:41:48.067Z,14.58
2017-08-29T00:43:02.228Z,14.55
2017-08-29T00:44:04.110Z,14.55
2017-08-29T00:45:05.993Z,14.55
2017-08-29T00:46:07.874Z,14.55
2017-08-29T00:47:09.693Z,14.54
2017-08-29T00:48:11.513Z,14.55
2017-08-29T00:49:13.400Z,14.54
2017-08-29T00:50:15.283Z,14.50
2017-08-29T00:51:17.168Z,14.55
2017-08-29T00:52:31.325Z,14.45
2017-08-29T00:53:33.208Z,14.40
2017-08-29T00:54:35.098Z,14.36
2017-08-29T00:55:36.981Z,14.36
2017-08-29T00:56:38.800Z,14.42
2017-08-29T00:57:40.619Z,14.35
2017-08-29T00:58:42.503Z,14.37
2017-08-29T00:59:44.388Z,14.33
2017-08-29T01:00:46.273Z,14.35
2017-08-29T01:02:00.429Z,14.42
2017-08-29T01:03:02.312Z,14.33
2017-08-29T01:04:04.201Z,14.33
2017-08-29T01:05:06.085Z,14.28
2017-08-29T01:06:07.904Z,14.27
2017-08-29T01:07:09.724Z,14.28
2017-08-29T01:08:11.611Z,14.35
2017-08-29T01:09:13.492Z,14.28
2017-08-29T01:10:15.382Z,14.32
2017-08-29T01:11:29.583Z,14.25
2017-08-29T01:12:31.466Z,14.24
2017-08-29T01:13:33.351Z,14.18
2017-08-29T01:14:35.235Z,14.21
2017-08-29T01:15:37.054Z,14.20
2017-08-29T01:16:38.888Z,14.25
2017-08-29T01:17:40.774Z,14.21
2017-08-29T01:18:42.661Z,14.25
2017-08-29T01:19:44.544Z,14.21
2017-08-29T01:20:58.697Z,14.20
2017-08-29T01:22:00.582Z,14.27
2017-08-29T01:23:02.469Z,14.22
2017-08-29T01:24:04.351Z,14.17
2017-08-29T01:25:06.176Z,14.21
2017-08-29T01:26:07.990Z,14.24
2017-08-29T01:27:09.878Z,14.27
2017-08-29T01:28:11.763Z,14.25
2017-08-29T01:29:13.646Z,14.22
2017-08-29T01:30:27.800Z,14.24
2017-08-29T01:31:29.694Z,14.15
2017-08-29T01:32:31.580Z,14.20
2017-08-29T01:33:33.466Z,14.14
2017-08-29T01:34:35.286Z,14.22
2017-08-29T01:35:37.107Z,14.20
2017-08-29T01:36:38.992Z,14.03
2017-08-29T01:37:40.878Z,14.17
2017-08-29T01:38:42.762Z,14.09
2017-08-29T01:39:56.919Z,14.02
2017-08-29T01:40:58.820Z,14.14
2017-08-29T01:42:00.692Z,14.07
2017-08-29T01:43:02.569Z,14.00
2017-08-29T01:44:04.395Z,14.15
2017-08-29T01:45:06.213Z,14.03
2017-08-29T01:46:08.098Z,14.07
2017-08-29T01:47:09.986Z,14.02
2017-08-29T01:48:11.867Z,14.02
2017-08-29T01:49:26.072Z,13.99
2017-08-29T01:50:27.954Z,13.99
2017-08-29T01:51:29.838Z,13.92
2017-08-29T01:52:31.733Z,13.88
2017-08-29T01:53:33.555Z,13.88
2017-08-29T01:54:35.385Z,13.89
2017-08-29T01:55:37.270Z,13.95
2017-08-29T01:56:39.155Z,14.00
2017-08-29T01:57:41.039Z,13.92
2017-08-29T01:58:55.194Z,13.96
2017-08-29T01:59:57.076Z,14.06
2017-08-29T02:00:58.960Z,13.95
2017-08-29T02:02:00.855Z,13.97
2017-08-29T02:03:02.674Z,13.87
2017-08-29T02:04:04.492Z,13.84
2017-08-29T02:05:06.374Z,13.89
2017-08-29T02:06:08.260Z,13.77
2017-08-29T02:07:10.144Z,13.77
2017-08-29T02:08:24.297Z,13.81
2017-08-29T02:09:26.181Z,13.79
2017-08-29T02:10:28.066Z,13.75
2017-08-29T02:11:29.960Z,13.77
2017-08-29T02:12:31.794Z,13.77
2017-08-29T02:13:33.613Z,13.79
2017-08-29T02:14:35.497Z,13.78
2017-08-29T02:15:37.383Z,13.84
2017-08-29T02:16:39.266Z,13.78
2017-08-29T02:17:53.422Z,13.78
2017-08-29T02:18:55.305Z,13.71
2017-08-29T02:19:57.189Z,13.73
2017-08-29T02:20:59.073Z,13.67
2017-08-29T02:22:00.895Z,13.67
2017-08-29T02:23:02.712Z,13.75
2017-08-29T02:24:04.605Z,13.71
2017-08-29T02:25:06.490Z,13.69
2017-08-29T02:26:08.382Z,13.78
2017-08-29T02:27:22.524Z,13.67
2017-08-29T02:28:24.406Z,13.60
2017-08-29T02:29:26.299Z,13.66
2017-08-29T02:30:28.183Z,13.67
2017-08-29T02:31:30.004Z,13.62
2017-08-29T02:32:31.821Z,13.64
2017-08-29T02:33:33.717Z,13.55
2017-08-29T02:34:35.603Z,13.59
2017-08-29T02:35:37.485Z,13.55
2017-08-29T02:36:51.645Z,13.54
2017-08-29T02:37:53.527Z,13.62
2017-08-29T02:38:55.411Z,13.57
2017-08-29T02:39:57.305Z,13.54
2017-08-29T02:40:59.126Z,13.48
2017-08-29T02:42:00.943Z,13.46
2017-08-29T02:43:02.836Z,13.46
2017-08-29T02:44:04.728Z,13.45
2017-08-29T02:45:06.612Z,13.51
2017-08-29T02:46:20.767Z,13.46
2017-08-29T02:47:22.652Z,13.39
2017-08-29T02:48:24.535Z,13.46
2017-08-29T02:49:26.418Z,13.48
2017-08-29T02:50:28.240Z,13.59
2017-08-29T02:51:30.058Z,13.55
2017-08-29T02:52:31.943Z,13.33
2017-08-29T02:53:33.828Z,13.45
2017-08-29T02:54:35.720Z,13.38
2017-08-29T02:55:49.877Z,13.48
2017-08-29T02:56:51.760Z,13.52
2017-08-29T02:57:53.646Z,13.42
2017-08-29T02:58:55.529Z,13.32
2017-08-29T02:59:57.351Z,13.38
2017-08-29T03:00:59.169Z,13.44
2017-08-29T03:02:01.053Z,13.39
2017-08-29T03:03:02.940Z,13.39
2017-08-29T03:04:04.833Z,13.38
2017-08-29T03:05:18.999Z,13.46
2017-08-29T03:06:20.902Z,13.38
2017-08-29T03:07:22.785Z,13.32
2017-08-29T03:08:24.678Z,13.41
2017-08-29T03:09:26.502Z,13.20
2017-08-29T03:10:28.317Z,13.30
2017-08-29T03:11:30.213Z,13.29
2017-08-29T03:12:32.110Z,13.28
2017-08-29T03:13:34.005Z,13.29
2017-08-29T03:14:48.161Z,13.41
2017-08-29T03:15:50.043Z,13.33
2017-08-29T03:16:51.937Z,13.38
2017-08-29T03:17:53.820Z,13.23
2017-08-29T03:18:55.643Z,13.33
2017-08-29T03:19:57.458Z,13.39
2017-08-29T03:20:59.340Z,13.41
2017-08-29T03:22:01.226Z,13.29
2017-08-29T03:23:03.108Z,13.32
2017-08-29T03:24:17.263Z,13.36
2017-08-29T03:25:19.147Z,13.28
2017-08-29T03:26:21.031Z,13.26
2017-08-29T03:27:22.915Z,13.26
2017-08-29T03:28:24.736Z,13.20
2017-08-29T03:29:26.556Z,13.08
2017-08-29T03:30:28.452Z,13.08
2017-08-29T03:31:30.341Z,13.04
2017-08-29T03:32:32.225Z,13.15
2017-08-29T03:33:46.574Z,13.05
2017-08-29T03:34:48.468Z,13.11
2017-08-29T03:35:50.354Z,13.08
2017-08-29T03:36:52.238Z,13.01
2017-08-29T03:37:54.058Z,13.08
2017-08-29T03:38:55.875Z,12.95
2017-08-29T03:39:57.757Z,12.87
2017-08-29T03:40:59.642Z,12.78
2017-08-29T03:42:01.525Z,12.77
2017-08-29T03:43:15.679Z,12.85
2017-08-29T03:44:17.561Z,12.86
2017-08-29T03:45:19.447Z,12.85
2017-08-29T03:46:21.331Z,12.87
2017-08-29T03:47:23.152Z,12.79
2017-08-29T03:48:24.982Z,12.64
2017-08-29T03:49:26.880Z,12.60
2017-08-29T03:50:28.766Z,12.52
2017-08-29T03:51:30.653Z,12.53
2017-08-29T03:52:44.809Z,12.57
2017-08-29T03:53:46.690Z,12.62
2017-08-29T03:54:48.583Z,12.67
2017-08-29T03:55:50.479Z,12.77
2017-08-29T03:56:52.301Z,12.78
2017-08-29T03:57:54.121Z,12.75
2017-08-29T03:58:56.006Z,12.72
2017-08-29T03:59:57.891Z,12.75
2017-08-29T04:00:59.778Z,12.78
2017-08-29T04:02:13.995Z,12.83
2017-08-29T04:03:15.883Z,12.67
2017-08-29T04:04:17.764Z,12.68
2017-08-29T04:05:19.649Z,12.64
2017-08-29T04:06:21.472Z,12.74
2017-08-29T04:07:23.300Z,12.74
2017-08-29T04:08:25.186Z,12.75
2017-08-29T04:09:27.071Z,12.82
2017-08-29T04:10:28.958Z,12.92
2017-08-29T04:11:43.112Z,12.90
2017-08-29T04:12:44.998Z,12.85
2017-08-29T04:13:46.886Z,12.87
2017-08-29T04:14:48.773Z,12.77
2017-08-29T04:15:50.594Z,12.83
2017-08-29T04:16:52.421Z,12.86
2017-08-29T04:17:54.310Z,12.90
2017-08-29T04:18:56.194Z,12.97
2017-08-29T04:19:58.095Z,13.00
2017-08-29T04:21:12.253Z,12.97
2017-08-29T04:22:14.150Z,12.96
2017-08-29T04:23:16.036Z,12.93
2017-08-29T04:24:17.940Z,12.96
2017-08-29T04:25:19.760Z,13.08
2017-08-29T04:26:21.581Z,13.12
2017-08-29T04:27:23.469Z,13.14
2017-08-29T04:28:25.360Z,13.19
2017-08-29T04:29:27.245Z,13.14
2017-08-29T04:30:41.415Z,13.22
2017-08-29T04:31:43.324Z,13.15
2017-08-29T04:32:45.238Z,13.22
2017-08-29T04:33:47.135Z,13.15
2017-08-29T04:34:48.961Z,13.25
2017-08-29T04:35:50.785Z,13.46
2017-08-29T04:36:52.684Z,13.60
2017-08-29T04:37:54.583Z,13.75
2017-08-29T04:38:56.468Z,13.79
2017-08-29T04:40:10.627Z,13.97
2017-08-29T04:41:12.511Z,14.00
2017-08-29T04:42:14.398Z,14.12
2017-08-29T04:43:16.284Z,14.28
2017-08-29T04:44:18.113Z,14.39
2017-08-29T04:45:19.947Z,14.45
2017-08-29T04:46:21.837Z,14.42
2017-08-29T04:47:23.726Z,14.47
2017-08-29T04:48:25.613Z,14.50
2017-08-29T04:49:39.905Z,14.57
2017-08-29T04:50:41.816Z,14.68
2017-08-29T04:51:43.682Z,14.62
2017-08-29T04:52:45.563Z,14.60
2017-08-29T04:53:47.391Z,14.55
2017-08-29T04:54:49.214Z,14.72
2017-08-29T04:55:51.101Z,14.73
2017-08-29T04:56:52.987Z,14.72
2017-08-29T04:57:54.890Z,14.68
2017-08-29T04:59:09.089Z,14.54
2017-08-29T05:00:10.973Z,14.52
2017-08-29T05:01:12.861Z,14.54
2017-08-29T05:02:14.748Z,14.50
2017-08-29T05:03:16.600Z,14.45
2017-08-29T05:04:18.399Z,14.57
2017-08-29T05:05:20.299Z,14.60
2017-08-29T05:06:22.186Z,14.58
2017-08-29T05:07:24.087Z,14.68
2017-08-29T05:08:38.246Z,14.77
2017-08-29T05:09:40.130Z,14.73
2017-08-29T05:10:42.017Z,14.83
2017-08-29T05:11:43.904Z,14.89
2017-08-29T05:12:45.741Z,14.88
2017-08-29T05:13:47.564Z,14.86
2017-08-29T05:14:49.452Z,14.84
2017-08-29T05:15:51.338Z,14.68
2017-08-29T05:16:53.228Z,14.57
2017-08-29T05:18:07.387Z,14.57
2017-08-29T05:19:09.273Z,14.80
2017-08-29T05:20:11.163Z,14.83
2017-08-29T05:21:13.053Z,14.86
2017-08-29T05:22:14.881Z,14.89
2017-08-29T05:23:16.704Z,14.81
2017-08-29T05:24:18.592Z,14.86
2017-08-29T05:25:20.482Z,14.78
2017-08-29T05:26:22.377Z,14.77
2017-08-29T05:27:36.536Z,14.78
2017-08-29T05:28:38.421Z,14.73
2017-08-29T05:29:40.310Z,14.70
2017-08-29T05:30:42.198Z,14.73
2017-08-29T05:31:44.022Z,14.73
2017-08-29T05:32:45.845Z,14.84
2017-08-29T05:33:47.745Z,14.78
2017-08-29T05:34:49.634Z,14.70
2017-08-29T05:35:51.540Z,14.65
2017-08-29T05:37:05.701Z,14.72
2017-08-29T05:38:07.586Z,14.84
2017-08-29T05:39:09.474Z,14.96
2017-08-29T05:40:11.361Z,15.09
2017-08-29T05:41:13.198Z,15.21
2017-08-29T05:42:15.022Z,15.23
2017-08-29T05:43:16.907Z,15.49
2017-08-29T05:44:18.797Z,15.56
2017-08-29T05:45:20.680Z,15.56
2017-08-29T05:46:34.852Z,15.74
2017-08-29T05:47:36.733Z,15.74
2017-08-29T05:48:38.621Z,15.71
2017-08-29T05:49:40.505Z,15.93
2017-08-29T05:50:42.344Z,15.97
2017-08-29T05:51:44.168Z,16.12
2017-08-29T05:52:46.056Z,16.24
2017-08-29T05:53:47.945Z,16.30
2017-08-29T05:54:49.833Z,16.30
2017-08-29T05:56:04.044Z,16.38
2017-08-29T05:57:05.930Z,16.45
2017-08-29T05:58:07.817Z,16.46
2017-08-29T05:59:09.708Z,16.64
2017-08-29T06:00:11.535Z,16.79
2017-08-29T06:01:13.360Z,17.00
2017-08-29T06:02:15.250Z,16.93
2017-08-29T06:03:17.139Z,17.07
2017-08-29T06:04:19.028Z,17.19
2017-08-29T06:05:33.208Z,17.37
2017-08-29T06:06:35.076Z,17.33
2017-08-29T06:07:36.964Z,17.43
2017-08-29T06:08:38.867Z,17.55
2017-08-29T06:09:40.694Z,17.72
2017-08-29T06:10:42.521Z,17.71
2017-08-29T06:11:44.406Z,17.81
2017-08-29T06:12:46.296Z,17.81
2017-08-29T06:13:48.185Z,17.84
2017-08-29T06:15:02.346Z,18.00
2017-08-29T06:16:04.230Z,18.03
2017-08-29T06:17:06.120Z,17.99
2017-08-29T06:18:08.005Z,18.02
2017-08-29T06:19:09.832Z,18.07
2017-08-29T06:20:11.670Z,18.14
2017-08-29T06:21:13.578Z,18.15
2017-08-29T06:22:15.468Z,18.15
2017-08-29T06:23:17.355Z,18.25
2017-08-29T06:24:31.520Z,18.33
2017-08-29T06:25:33.407Z,18.41
2017-08-29T06:26:35.294Z,18.41
2017-08-29T06:27:37.183Z,18.45
2017-08-29T06:28:39.009Z,18.58
2017-08-29T06:29:40.838Z,18.42
2017-08-29T06:30:42.725Z,18.41
2017-08-29T06:31:44.615Z,18.48
2017-08-29T06:32:46.504Z,18.47
2017-08-29T06:34:00.668Z,18.62
2017-08-29T06:35:02.570Z,18.51
2017-08-29T06:36:04.456Z,18.57
2017-08-29T06:37:06.344Z,18.67
2017-08-29T06:38:08.175Z,18.73
2017-08-29T06:39:10.000Z,18.75
2017-08-29T06:40:11.887Z,18.72
2017-08-29T06:41:13.776Z,18.78
2017-08-29T06:42:15.676Z,18.81
2017-08-29T06:43:29.895Z,18.80
2017-08-29T06:44:31.775Z,18.76
2017-08-29T06:45:33.662Z,18.75
2017-08-29T06:46:35.551Z,18.73
2017-08-29T06:47:37.380Z,18.73
2017-08-29T06:48:39.206Z,18.80
2017-08-29T06:49:41.097Z,18.80
2017-08-29T06:50:42.986Z,18.85
2017-08-29T06:51:44.875Z,18.87
2017-08-29T06:52:59.085Z,18.99
2017-08-29T06:54:00.972Z,18.92
2017-08-29T06:55:02.859Z,19.04
2017-08-29T06:56:04.749Z,18.98
2017-08-29T06:57:06.581Z,18.90
2017-08-29T06:58:08.405Z,18.95
2017-08-29T06:59:10.292Z,19.04
2017-08-29T07:00:12.180Z,19.16
2017-08-29T07:01:14.069Z,19.10
2017-08-29T07:02:28.233Z,19.19
2017-08-29T07:03:30.117Z,19.21
2017-08-29T07:04:32.008Z,19.23
2017-08-29T07:05:33.898Z,19.40
2017-08-29T07:06:35.732Z,19.37
2017-08-29T07:07:37.556Z,19.37
2017-08-29T07:08:39.443Z,19.33
2017-08-29T07:09:41.333Z,19.39
2017-08-29T07:10:43.230Z,19.43
2017-08-29T07:11:57.391Z,19.40
2017-08-29T07:12:59.281Z,19.43
2017-08-29T07:14:01.168Z,19.43
2017-08-29T07:15:03.055Z,19.41
2017-08-29T07:16:04.884Z,19.51
2017-08-29T07:17:06.712Z,19.61
2017-08-29T07:18:08.600Z,19.56
2017-08-29T07:19:10.490Z,19.56
2017-08-29T07:20:12.377Z,19.58
2017-08-29T07:21:26.542Z,19.56
2017-08-29T07:22:28.428Z,19.51
2017-08-29T07:23:30.316Z,19.50
2017-08-29T07:24:32.205Z,19.59
2017-08-29T07:25:34.036Z,19.62
2017-08-29T07:26:35.858Z,19.50
2017-08-29T07:27:37.757Z,19.59
2017-08-29T07:28:39.645Z,19.39
2017-08-29T07:29:41.534Z,19.41
2017-08-29T07:30:55.698Z,19.41
2017-08-29T07:31:57.584Z,19.40
2017-08-29T07:32:59.473Z,19.47
2017-08-29T07:34:01.367Z,19.55
2017-08-29T07:35:03.200Z,19.65
2017-08-29T07:36:05.028Z,19.68
2017-08-29T07:37:06.915Z,19.73
2017-08-29T07:38:08.806Z,19.68
2017-08-29T07:39:10.707Z,19.69
2017-08-29T07:40:24.872Z,19.73
2017-08-29T07:41:26.758Z,19.80
2017-08-29T07:42:28.647Z,19.80
2017-08-29T07:43:30.535Z,19.99
2017-08-29T07:44:32.379Z,20.06
2017-08-29T07:45:34.191Z,20.10
2017-08-29T07:46:36.090Z,20.23
2017-08-29T07:47:37.997Z,20.17
2017-08-29T07:48:39.887Z,20.29
2017-08-29T07:49:54.101Z,20.24
2017-08-29T07:50:55.989Z,20.35
2017-08-29T07:51:57.886Z,20.35
2017-08-29T07:52:59.781Z,20.38
2017-08-29T07:54:01.610Z,20.43
2017-08-29T07:55:03.436Z,20.39
2017-08-29T07:56:05.324Z,20.52
2017-08-29T07:57:07.216Z,20.52
2017-08-29T07:58:09.105Z,20.54
2017-08-29T07:59:23.269Z,20.57
2017-08-29T08:00:25.155Z,20.66
2017-08-29T08:01:27.043Z,20.57
2017-08-29T08:02:28.930Z,20.67
2017-08-29T08:03:30.759Z,20.73
2017-08-29T08:04:32.586Z,20.72
2017-08-29T08:05:34.474Z,20.73
2017-08-29T08:06:36.364Z,20.80
2017-08-29T08:07:38.263Z,20.74
2017-08-29T08:08:52.430Z,20.82
2017-08-29T08:09:54.319Z,20.84
2017-08-29T08:10:56.207Z,20.89
2017-08-29T08:11:58.096Z,20.89
2017-08-29T08:12:59.924Z,20.89
2017-08-29T08:14:01.762Z,20.88
2017-08-29T08:15:03.652Z,20.88
2017-08-29T08:16:05.545Z,20.89
2017-08-29T08:17:07.439Z,20.89
2017-08-29T08:18:21.604Z,20.99
2017-08-29T08:19:23.515Z,20.98
2017-08-29T08:20:25.459Z,21.01
2017-08-29T08:21:27.396Z,20.98
2017-08-29T08:22:29.278Z,21.13
2017-08-29T08:23:31.154Z,21.13
2017-08-29T08:24:33.089Z,21.12
2017-08-29T08:25:35.026Z,21.13
2017-08-29T08:26:36.960Z,21.16
2017-08-29T08:27:51.196Z,21.29
2017-08-29T08:28:53.106Z,21.21
2017-08-29T08:29:55.034Z,21.19
2017-08-29T08:30:56.970Z,21.28
2017-08-29T08:31:58.840Z,21.25
2017-08-29T08:33:00.708Z,21.34
2017-08-29T08:34:02.665Z,21.25
2017-08-29T08:35:04.596Z,21.27
2017-08-29T08:36:06.536Z,21.27
2017-08-29T08:37:20.774Z,21.24
2017-08-29T08:38:22.696Z,21.29
2017-08-29T08:39:24.639Z,21.35
2017-08-29T08:40:26.573Z,21.37
2017-08-29T08:41:28.437Z,21.40
2017-08-29T08:42:30.312Z,21.34
2017-08-29T08:43:32.230Z,21.37
2017-08-29T08:44:34.162Z,21.40
2017-08-29T08:45:36.107Z,21.38
2017-08-29T08:46:50.301Z,21.42
2017-08-29T08:47:52.214Z,21.46
2017-08-29T08:48:54.105Z,21.50
2017-08-29T08:49:55.995Z,21.53
2017-08-29T08:50:57.822Z,21.52
2017-08-29T08:51:59.654Z,21.62
2017-08-29T08:53:01.544Z,21.71
2017-08-29T08:54:03.399Z,21.69
2017-08-29T08:55:05.227Z,21.62
2017-08-29T08:56:19.412Z,21.74
2017-08-29T08:57:21.299Z,21.80
2017-08-29T08:58:23.191Z,21.80
2017-08-29T08:59:25.077Z,21.79
2017-08-29T09:00:26.919Z,21.80
2017-08-29T09:01:28.766Z,21.79
2017-08-29T09:02:30.656Z,21.75
2017-08-29T09:03:32.546Z,21.72
2017-08-29T09:04:34.446Z,21.80
2017-08-29T09:05:48.611Z,21.80
2017-08-29T09:06:50.498Z,21.74
2017-08-29T09:07:52.389Z,21.75
2017-08-29T09:08:54.309Z,21.94
2017-08-29T09:09:56.144Z,21.96
2017-08-29T09:10:57.974Z,21.90
2017-08-29T09:11:59.862Z,21.92
2017-08-29T09:13:01.758Z,21.92
2017-08-29T09:14:03.645Z,21.94
2017-08-29T09:15:17.810Z,21.94
2017-08-29T09:16:19.713Z,22.00
2017-08-29T09:17:21.602Z,21.99
2017-08-29T09:18:23.496Z,21.94
2017-08-29T09:19:25.326Z,22.02
2017-08-29T09:20:27.156Z,22.00
2017-08-29T09:21:29.048Z,22.02
2017-08-29T09:22:30.938Z,21.99
2017-08-29T09:23:32.837Z,22.06
2017-08-29T09:24:47.013Z,22.09
2017-08-29T09:25:48.897Z,22.07
2017-08-29T09:26:50.796Z,22.14
2017-08-29T09:27:52.681Z,22.15
2017-08-29T09:28:54.522Z,22.22
2017-08-29T09:29:56.351Z,22.21
2017-08-29T09:30:58.243Z,22.35
2017-08-29T09:32:00.132Z,22.28
2017-08-29T09:33:02.031Z,22.31
2017-08-29T09:34:16.196Z,22.37
2017-08-29T09:35:18.084Z,22.31
2017-08-29T09:36:19.975Z,22.33
2017-08-29T09:37:21.862Z,22.35
2017-08-29T09:38:23.689Z,22.33
2017-08-29T09:39:25.520Z,22.40
2017-08-29T09:40:27.410Z,22.36
2017-08-29T09:41:29.303Z,22.43
2017-08-29T09:42:31.191Z,22.51
2017-08-29T09:43:45.360Z,22.49
2017-08-29T09:44:47.254Z,22.52
2017-08-29T09:45:49.138Z,22.47
2017-08-29T09:46:51.027Z,22.51
2017-08-29T09:47:52.869Z,22.47
2017-08-29T09:48:54.700Z,22.54
2017-08-29T09:49:56.589Z,22.42
2017-08-29T09:50:58.483Z,22.55
2017-08-29T09:52:00.370Z,22.55
2017-08-29T09:53:14.535Z,22.55
2017-08-29T09:54:16.423Z,22.54
2017-08-29T09:55:18.315Z,22.61
2017-08-29T09:56:20.206Z,22.67
2017-08-29T09:57:22.049Z,22.64
2017-08-29T09:58:23.877Z,22.67
2017-08-29T09:59:25.772Z,22.68
2017-08-29T10:00:27.660Z,22.67
2017-08-29T10:01:29.550Z,22.73
2017-08-29T10:02:43.715Z,22.67
2017-08-29T10:03:45.602Z,22.75
2017-08-29T10:04:47.503Z,22.67
2017-08-29T10:05:49.394Z,22.68
2017-08-29T10:06:51.228Z,22.73
2017-08-29T10:07:53.056Z,22.67
2017-08-29T10:08:54.948Z,22.75
2017-08-29T10:09:56.839Z,22.79
2017-08-29T10:10:58.729Z,22.76
2017-08-29T10:12:12.894Z,22.77
2017-08-29T10:13:14.781Z,22.79
2017-08-29T10:14:16.672Z,22.82
2017-08-29T10:15:18.565Z,22.82
2017-08-29T10:16:20.396Z,22.92
2017-08-29T10:17:22.223Z,22.90
2017-08-29T10:18:24.116Z,22.98
2017-08-29T10:19:26.008Z,22.82
2017-08-29T10:20:27.897Z,22.90
2017-08-29T10:21:42.076Z,23.02
2017-08-29T10:22:43.964Z,23.02
2017-08-29T10:23:45.864Z,23.10
2017-08-29T10:24:47.742Z,23.07
2017-08-29T10:25:49.586Z,23.17
2017-08-29T10:26:51.414Z,23.20
2017-08-29T10:27:53.315Z,23.25
2017-08-29T10:28:55.198Z,23.28
2017-08-29T10:29:57.102Z,23.36
2017-08-29T10:31:11.265Z,23.32
2017-08-29T10:32:13.152Z,23.33
2017-08-29T10:33:15.068Z,23.38
2017-08-29T10:34:16.966Z,23.40
2017-08-29T10:35:18.798Z,23.46
2017-08-29T10:36:20.625Z,23.42
2017-08-29T10:37:22.512Z,23.42
2017-08-29T10:38:24.415Z,23.53
2017-08-29T10:39:26.304Z,23.53
2017-08-29T10:40:40.477Z,23.48
2017-08-29T10:41:42.363Z,23.58
2017-08-29T10:42:44.252Z,23.57
2017-08-29T10:43:46.144Z,23.51
2017-08-29T10:44:47.980Z,23.54
2017-08-29T10:45:49.809Z,23.57
2017-08-29T10:46:51.700Z,23.58
2017-08-29T10:47:53.595Z,23.61
2017-08-29T10:48:55.495Z,23.61
2017-08-29T10:50:09.661Z,23.68
2017-08-29T10:51:11.566Z,23.65
2017-08-29T10:52:13.452Z,23.69
2017-08-29T10:53:15.343Z,23.73
2017-08-29T10:54:17.184Z,23.72
2017-08-29T10:55:19.012Z,23.73
2017-08-29T10:56:20.905Z,23.75
2017-08-29T10:57:22.795Z,23.76
2017-08-29T10:58:24.694Z,23.76
2017-08-29T10:59:38.908Z,23.76
2017-08-29T11:00:40.796Z,23.83
2017-08-29T11:01:42.692Z,23.84
2017-08-29T11:02:44.579Z,23.83
2017-08-29T11:03:46.410Z,23.84
2017-08-29T11:04:48.238Z,23.79
2017-08-29T11:05:50.128Z,23.87
2017-08-29T11:06:52.021Z,23.97
2017-08-29T11:07:53.910Z,23.94
2017-08-29T11:09:08.089Z,23.94
2017-08-29T11:10:09.974Z,23.94
2017-08-29T11:11:11.865Z,24.02
2017-08-29T11:12:13.753Z,23.97
2017-08-29T11:13:15.593Z,23.97
2017-08-29T11:14:17.439Z,23.93
2017-08-29T11:15:19.931Z,23.97
2017-08-29T11:16:22.729Z,23.94
2017-08-29T11:17:25.514Z,24.05
2017-08-29T11:18:40.473Z,24.03
2017-08-29T11:19:43.195Z,24.09
2017-08-29T11:20:45.738Z,24.12
2017-08-29T11:21:48.589Z,23.97
2017-08-29T11:22:51.484Z,24.15
2017-08-29T11:23:53.870Z,24.13
2017-08-29T11:24:56.595Z,24.16
2017-08-29T11:25:59.238Z,24.10
2017-08-29T11:27:02.045Z,24.22
2017-08-29T11:28:16.952Z,24.16
2017-08-29T11:29:19.712Z,24.16
2017-08-29T11:30:22.508Z,24.10
2017-08-29T11:31:25.201Z,24.03
2017-08-29T11:32:28.312Z,23.95
2017-08-29T11:33:30.965Z,23.94
2017-08-29T11:34:33.017Z,23.98
2017-08-29T11:35:34.909Z,24.02
2017-08-29T11:36:36.797Z,24.12
2017-08-29T11:37:50.966Z,24.13
2017-08-29T11:38:52.856Z,24.13
2017-08-29T11:39:54.748Z,24.09
2017-08-29T11:40:56.640Z,24.24
2017-08-29T11:41:58.482Z,24.25
2017-08-29T11:43:00.314Z,24.15
2017-08-29T11:44:02.211Z,24.18
2017-08-29T11:45:04.097Z,24.28
2017-08-29T11:46:05.989Z,24.32
2017-08-29T11:47:20.203Z,24.32
2017-08-29T11:48:22.094Z,24.40
2017-08-29T11:49:23.984Z,24.21
2017-08-29T11:50:25.877Z,24.21
2017-08-29T11:51:27.721Z,24.25
2017-08-29T11:52:29.548Z,24.16
2017-08-29T11:53:31.440Z,24.15
2017-08-29T11:54:33.331Z,24.06
2017-08-29T11:55:35.230Z,24.08
2017-08-29T11:56:49.406Z,24.02
2017-08-29T11:57:51.284Z,24.03
2017-08-29T11:58:53.183Z,24.06
2017-08-29T11:59:55.122Z,24.08
2017-08-29T12:00:56.954Z,24.02
2017-08-29T12:01:58.785Z,24.10
2017-08-29T12:03:00.676Z,24.16
2017-08-29T12:04:02.647Z,24.10
2017-08-29T12:05:04.500Z,24.21
2017-08-29T12:06:18.666Z,24.21
2017-08-29T12:07:20.554Z,24.15
2017-08-29T12:08:22.447Z,24.10
2017-08-29T12:09:24.337Z,24.05
2017-08-29T12:10:26.173Z,24.13
2017-08-29T12:11:28.003Z,24.06
2017-08-29T12:12:29.896Z,24.05
2017-08-29T12:13:31.786Z,23.88
2017-08-29T12:14:33.671Z,23.75
2017-08-29T12:15:47.840Z,23.73
2017-08-29T12:16:49.742Z,23.75
2017-08-29T12:17:51.634Z,23.72
2017-08-29T12:18:53.553Z,23.61
2017-08-29T12:19:55.428Z,23.66
2017-08-29T12:20:57.652Z,23.75
2017-08-29T12:21:59.521Z,23.73
2017-08-29T12:23:01.424Z,23.76
2017-08-29T12:24:03.303Z,23.83
2017-08-29T12:25:17.479Z,23.97
2017-08-29T12:26:19.438Z,24.13
2017-08-29T12:27:21.391Z,24.24
2017-08-29T12:28:23.597Z,24.16
2017-08-29T12:29:25.434Z,24.20
2017-08-29T12:30:27.631Z,24.28
2017-08-29T12:31:29.875Z,24.25
2017-08-29T12:32:31.827Z,24.40
2017-08-29T12:33:34.105Z,24.32
2017-08-29T12:34:48.391Z,24.39
2017-08-29T12:35:50.320Z,24.43
2017-08-29T12:36:52.209Z,24.40
2017-08-29T12:37:54.130Z,24.45
2017-08-29T12:38:55.971Z,24.47
2017-08-29T12:39:57.815Z,24.58
2017-08-29T12:41:00.128Z,24.52
2017-08-29T12:42:02.032Z,24.60
2017-08-29T12:43:03.935Z,24.65
2017-08-29T12:44:18.182Z,24.52
2017-08-29T12:45:20.387Z,24.50
2017-08-29T12:46:22.282Z,24.53
2017-08-29T12:47:24.172Z,24.57
2017-08-29T12:48:26.374Z,24.50
2017-08-29T12:49:28.196Z,24.49
2017-08-29T12:50:30.088Z,24.39
2017-08-29T12:51:31.979Z,24.34
2017-08-29T12:52:33.867Z,24.27
2017-08-29T12:53:48.065Z,24.28
2017-08-29T12:54:49.957Z,24.28
2017-08-29T12:55:51.852Z,24.34
2017-08-29T12:56:53.743Z,24.34
2017-08-29T12:57:55.578Z,24.39
2017-08-29T12:58:57.406Z,24.43
2017-08-29T12:59:59.306Z,24.39
2017-08-29T13:01:01.194Z,24.37
2017-08-29T13:02:03.095Z,24.35
2017-08-29T13:03:17.262Z,24.12
2017-08-29T13:04:19.152Z,24.24
2017-08-29T13:05:21.058Z,24.16
2017-08-29T13:06:22.982Z,24.13
2017-08-29T13:07:24.818Z,24.21
2017-08-29T13:08:26.946Z,24.32
2017-08-29T13:09:28.804Z,24.34
2017-08-29T13:10:30.708Z,24.39
2017-08-29T13:11:32.587Z,24.49
2017-08-29T13:12:46.804Z,24.50
2017-08-29T13:13:48.695Z,24.47
2017-08-29T13:14:50.587Z,24.60
2017-08-29T13:15:52.488Z,24.71
2017-08-29T13:16:54.321Z,24.71
2017-08-29T13:17:56.148Z,24.68
2017-08-29T13:18:58.047Z,24.80
2017-08-29T13:19:59.939Z,24.81
2017-08-29T13:21:01.834Z,24.69
2017-08-29T13:22:15.996Z,24.68
2017-08-29T13:23:17.887Z,24.52
2017-08-29T13:24:19.780Z,24.61
2017-08-29T13:25:21.676Z,24.60
2017-08-29T13:26:23.521Z,24.55
2017-08-29T13:27:25.353Z,24.57
2017-08-29T13:28:27.244Z,24.78
2017-08-29T13:29:29.138Z,24.73
2017-08-29T13:30:31.030Z,24.80
2017-08-29T13:31:45.203Z,24.85
2017-08-29T13:32:47.089Z,24.96
2017-08-29T13:33:48.980Z,25.02
2017-08-29T13:34:50.903Z,25.02